sensor_id;sensor_type;location;lat;lon;timestamp;temperature;humidity
18147;DHT22;9199;48.832;9.182;2023-05-15T00:00:24;10.80;99.90
18147;DHT22;9199;48.832;9.182;2023-05-15T00:02:51;10.80;99.90
18147;DHT22;9199;48.832;9.182;2023-05-15T00:05:17;10.80;99.90
18147;DHT22;9199;48.832;9.182;2023-05-15T00:07:46;10.80;99.90
18147;DHT22;9199;48.832;9.182;2023-05-15T00:10:12;10.80;99.90
18147;DHT22;9199;48.832;9.182;2023-05-15T00:12:39;10.90;99.90
18147;DHT22;9199;48.832;9.182;2023-05-15T00:15:07;10.90;99.90
18147;DHT22;9199;48.832;9.182;2023-05-15T00:17:34;10.90;99.90
18147;DHT22;9199;48.832;9.182;2023-05-15T00:20:00;11.00;99.90
18147;DHT22;9199;48.832;9.182;2023-05-15T00:22:29;11.00;99.90
18147;DHT22;9199;48.832;9.182;2023-05-15T00:24:57;10.90;99.90
18147;DHT22;9199;48.832;9.182;2023-05-15T00:27:24;10.90;99.90
18147;DHT22;9199;48.832;9.182;2023-05-15T00:29:51;10.80;99.90
18147;DHT22;9199;48.832;9.182;2023-05-15T00:32:17;10.80;99.90
18147;DHT22;9199;48.832;9.182;2023-05-15T00:34:44;10.80;99.90
18147;DHT22;9199;48.832;9.182;2023-05-15T00:37:11;10.90;99.90
18147;DHT22;9199;48.832;9.182;2023-05-15T00:39:37;10.90;99.90
18147;DHT22;9199;48.832;9.182;2023-05-15T00:42:07;10.90;99.90
18147;DHT22;9199;48.832;9.182;2023-05-15T00:44:34;10.90;99.90
18147;DHT22;9199;48.832;9.182;2023-05-15T00:47:02;10.90;99.90
18147;DHT22;9199;48.832;9.182;2023-05-15T00:49:31;11.00;99.90
18147;DHT22;9199;48.832;9.182;2023-05-15T00:52:00;11.00;99.90
18147;DHT22;9199;48.832;9.182;2023-05-15T00:54:28;11.00;99.90
18147;DHT22;9199;48.832;9.182;2023-05-15T00:56:55;11.10;99.90
18147;DHT22;9199;48.832;9.182;2023-05-15T00:59:25;11.10;99.90
18147;DHT22;9199;48.832;9.182;2023-05-15T01:01:53;11.20;99.90
18147;DHT22;9199;48.832;9.182;2023-05-15T01:04:21;11.20;99.90
18147;DHT22;9199;48.832;9.182;2023-05-15T01:06:47;11.20;99.90
18147;DHT22;9199;48.832;9.182;2023-05-15T01:09:16;11.10;99.90
18147;DHT22;9199;48.832;9.182;2023-05-15T01:11:46;11.20;99.90
18147;DHT22;9199;48.832;9.182;2023-05-15T01:14:12;11.10;99.90
18147;DHT22;9199;48.832;9.182;2023-05-15T01:16:41;11.10;99.90
18147;DHT22;9199;48.832;9.182;2023-05-15T01:19:07;11.10;99.90
18147;DHT22;9199;48.832;9.182;2023-05-15T01:21:55;11.10;99.90
18147;DHT22;9199;48.832;9.182;2023-05-15T01:24:37;11.00;99.90
18147;DHT22;9199;48.832;9.182;2023-05-15T01:27:18;11.00;99.90
18147;DHT22;9199;48.832;9.182;2023-05-15T01:29:55;11.00;99.90
18147;DHT22;9199;48.832;9.182;2023-05-15T01:32:28;11.00;99.90
18147;DHT22;9199;48.832;9.182;2023-05-15T01:35:02;11.10;99.90
18147;DHT22;9199;48.832;9.182;2023-05-15T01:37:34;11.00;99.90
18147;DHT22;9199;48.832;9.182;2023-05-15T01:40:03;11.00;99.90
18147;DHT22;9199;48.832;9.182;2023-05-15T01:42:33;11.00;99.90
18147;DHT22;9199;48.832;9.182;2023-05-15T01:45:02;11.10;99.90
18147;DHT22;9199;48.832;9.182;2023-05-15T01:47:34;11.10;99.90
18147;DHT22;9199;48.832;9.182;2023-05-15T01:50:03;11.10;99.90
18147;DHT22;9199;48.832;9.182;2023-05-15T01:52:33;11.10;99.90
18147;DHT22;9199;48.832;9.182;2023-05-15T01:55:01;11.10;99.90
18147;DHT22;9199;48.832;9.182;2023-05-15T01:57:30;11.10;99.90
18147;DHT22;9199;48.832;9.182;2023-05-15T01:59:58;11.00;99.90
18147;DHT22;9199;48.832;9.182;2023-05-15T02:02:26;11.00;99.90
18147;DHT22;9199;48.832;9.182;2023-05-15T02:04:54;11.00;99.90
18147;DHT22;9199;48.832;9.182;2023-05-15T02:07:22;10.90;99.90
18147;DHT22;9199;48.832;9.182;2023-05-15T02:09:50;10.90;99.90
18147;DHT22;9199;48.832;9.182;2023-05-15T02:12:18;10.90;99.90
18147;DHT22;9199;48.832;9.182;2023-05-15T02:14:48;10.90;99.90
18147;DHT22;9199;48.832;9.182;2023-05-15T02:17:16;10.80;99.90
18147;DHT22;9199;48.832;9.182;2023-05-15T02:19:43;10.80;99.90
18147;DHT22;9199;48.832;9.182;2023-05-15T02:22:09;10.80;99.90
18147;DHT22;9199;48.832;9.182;2023-05-15T02:24:36;10.70;99.90
18147;DHT22;9199;48.832;9.182;2023-05-15T02:27:07;10.70;99.90
18147;DHT22;9199;48.832;9.182;2023-05-15T02:29:45;10.70;99.90
18147;DHT22;9199;48.832;9.182;2023-05-15T02:32:24;10.70;99.90
18147;DHT22;9199;48.832;9.182;2023-05-15T02:35:01;10.70;99.90
18147;DHT22;9199;48.832;9.182;2023-05-15T02:37:31;10.60;99.90
18147;DHT22;9199;48.832;9.182;2023-05-15T02:40:00;10.70;99.90
18147;DHT22;9199;48.832;9.182;2023-05-15T02:42:28;10.70;99.90
18147;DHT22;9199;48.832;9.182;2023-05-15T02:44:57;10.70;99.90
18147;DHT22;9199;48.832;9.182;2023-05-15T02:47:26;10.80;99.90
18147;DHT22;9199;48.832;9.182;2023-05-15T02:49:53;10.80;99.90
18147;DHT22;9199;48.832;9.182;2023-05-15T02:52:21;10.90;99.90
18147;DHT22;9199;48.832;9.182;2023-05-15T02:54:48;11.00;99.90
18147;DHT22;9199;48.832;9.182;2023-05-15T02:57:14;11.00;99.90
18147;DHT22;9199;48.832;9.182;2023-05-15T02:59:41;11.10;99.90
18147;DHT22;9199;48.832;9.182;2023-05-15T03:02:08;11.10;99.90
18147;DHT22;9199;48.832;9.182;2023-05-15T03:04:36;11.10;99.90
18147;DHT22;9199;48.832;9.182;2023-05-15T03:07:03;11.10;99.90
18147;DHT22;9199;48.832;9.182;2023-05-15T03:09:30;11.10;99.90
18147;DHT22;9199;48.832;9.182;2023-05-15T03:11:57;11.10;99.90
18147;DHT22;9199;48.832;9.182;2023-05-15T03:14:23;11.10;99.90
18147;DHT22;9199;48.832;9.182;2023-05-15T03:16:50;11.10;99.90
18147;DHT22;9199;48.832;9.182;2023-05-15T03:19:16;11.10;99.90
18147;DHT22;9199;48.832;9.182;2023-05-15T03:21:44;11.10;99.90
18147;DHT22;9199;48.832;9.182;2023-05-15T03:24:11;11.10;99.90
18147;DHT22;9199;48.832;9.182;2023-05-15T03:26:38;11.20;99.90
18147;DHT22;9199;48.832;9.182;2023-05-15T03:29:07;11.20;99.90
18147;DHT22;9199;48.832;9.182;2023-05-15T03:31:33;11.30;99.90
18147;DHT22;9199;48.832;9.182;2023-05-15T03:34:00;11.30;99.90
18147;DHT22;9199;48.832;9.182;2023-05-15T03:36:27;11.30;99.90
18147;DHT22;9199;48.832;9.182;2023-05-15T03:38:55;11.30;99.90
18147;DHT22;9199;48.832;9.182;2023-05-15T03:41:21;11.40;99.90
18147;DHT22;9199;48.832;9.182;2023-05-15T03:43:48;11.40;99.90
18147;DHT22;9199;48.832;9.182;2023-05-15T03:46:14;11.40;99.90
18147;DHT22;9199;48.832;9.182;2023-05-15T03:48:41;11.40;99.90
18147;DHT22;9199;48.832;9.182;2023-05-15T03:51:08;11.50;99.90
18147;DHT22;9199;48.832;9.182;2023-05-15T03:53:35;11.50;99.90
18147;DHT22;9199;48.832;9.182;2023-05-15T03:56:03;11.50;99.90
18147;DHT22;9199;48.832;9.182;2023-05-15T03:58:30;11.50;99.90
18147;DHT22;9199;48.832;9.182;2023-05-15T04:00:57;11.50;99.90
18147;DHT22;9199;48.832;9.182;2023-05-15T04:03:24;11.50;99.90
18147;DHT22;9199;48.832;9.182;2023-05-15T04:05:50;11.60;99.90
18147;DHT22;9199;48.832;9.182;2023-05-15T04:08:17;11.70;99.90
18147;DHT22;9199;48.832;9.182;2023-05-15T04:10:44;11.70;99.90
18147;DHT22;9199;48.832;9.182;2023-05-15T04:13:12;11.70;99.90
18147;DHT22;9199;48.832;9.182;2023-05-15T04:15:39;11.80;99.90
18147;DHT22;9199;48.832;9.182;2023-05-15T04:18:06;11.80;99.90
18147;DHT22;9199;48.832;9.182;2023-05-15T04:20:32;11.90;99.90
18147;DHT22;9199;48.832;9.182;2023-05-15T04:22:59;12.00;99.90
18147;DHT22;9199;48.832;9.182;2023-05-15T04:25:27;12.00;99.90
18147;DHT22;9199;48.832;9.182;2023-05-15T04:27:54;12.10;99.90
18147;DHT22;9199;48.832;9.182;2023-05-15T04:30:22;12.10;99.90
18147;DHT22;9199;48.832;9.182;2023-05-15T04:32:49;12.20;99.90
18147;DHT22;9199;48.832;9.182;2023-05-15T04:35:16;12.30;99.90
18147;DHT22;9199;48.832;9.182;2023-05-15T04:37:43;12.40;99.90
18147;DHT22;9199;48.832;9.182;2023-05-15T04:40:11;12.40;99.90
18147;DHT22;9199;48.832;9.182;2023-05-15T04:42:39;12.50;99.90
18147;DHT22;9199;48.832;9.182;2023-05-15T04:45:07;12.60;99.90
18147;DHT22;9199;48.832;9.182;2023-05-15T04:47:36;12.70;99.90
18147;DHT22;9199;48.832;9.182;2023-05-15T04:50:03;12.70;99.90
18147;DHT22;9199;48.832;9.182;2023-05-15T04:52:31;12.80;99.90
18147;DHT22;9199;48.832;9.182;2023-05-15T04:54:57;12.80;99.90
18147;DHT22;9199;48.832;9.182;2023-05-15T04:57:24;12.90;99.90
18147;DHT22;9199;48.832;9.182;2023-05-15T04:59:51;13.00;99.90
18147;DHT22;9199;48.832;9.182;2023-05-15T05:02:19;13.10;99.90
18147;DHT22;9199;48.832;9.182;2023-05-15T05:04:48;13.40;99.90
18147;DHT22;9199;48.832;9.182;2023-05-15T05:07:14;13.90;99.90
18147;DHT22;9199;48.832;9.182;2023-05-15T05:09:41;14.20;99.90
18147;DHT22;9199;48.832;9.182;2023-05-15T05:12:08;14.60;99.90
18147;DHT22;9199;48.832;9.182;2023-05-15T05:14:36;14.70;99.90
18147;DHT22;9199;48.832;9.182;2023-05-15T05:17:04;14.70;99.90
18147;DHT22;9199;48.832;9.182;2023-05-15T05:19:31;14.70;99.90
18147;DHT22;9199;48.832;9.182;2023-05-15T05:21:59;14.70;99.90
18147;DHT22;9199;48.832;9.182;2023-05-15T05:24:29;14.80;99.90
18147;DHT22;9199;48.832;9.182;2023-05-15T05:26:56;14.80;99.90
18147;DHT22;9199;48.832;9.182;2023-05-15T05:29:23;14.90;99.90
18147;DHT22;9199;48.832;9.182;2023-05-15T05:31:50;14.90;99.90
18147;DHT22;9199;48.832;9.182;2023-05-15T05:34:17;14.90;99.90
18147;DHT22;9199;48.832;9.182;2023-05-15T05:36:44;14.90;99.90
18147;DHT22;9199;48.832;9.182;2023-05-15T05:39:12;14.90;99.90
18147;DHT22;9199;48.832;9.182;2023-05-15T05:41:39;14.90;99.90
18147;DHT22;9199;48.832;9.182;2023-05-15T05:44:06;14.90;99.90
18147;DHT22;9199;48.832;9.182;2023-05-15T05:46:33;14.90;99.90
18147;DHT22;9199;48.832;9.182;2023-05-15T05:48:59;14.90;99.90
18147;DHT22;9199;48.832;9.182;2023-05-15T05:51:26;14.90;99.90
18147;DHT22;9199;48.832;9.182;2023-05-15T05:53:53;14.70;99.90
18147;DHT22;9199;48.832;9.182;2023-05-15T05:56:21;14.70;99.90
18147;DHT22;9199;48.832;9.182;2023-05-15T05:58:48;14.70;99.90
18147;DHT22;9199;48.832;9.182;2023-05-15T06:01:15;14.70;99.90
18147;DHT22;9199;48.832;9.182;2023-05-15T06:03:42;14.50;99.90
18147;DHT22;9199;48.832;9.182;2023-05-15T06:06:09;14.50;99.90
18147;DHT22;9199;48.832;9.182;2023-05-15T06:08:35;14.40;99.90
18147;DHT22;9199;48.832;9.182;2023-05-15T06:11:02;14.40;99.90
18147;DHT22;9199;48.832;9.182;2023-05-15T06:13:30;14.50;99.90
18147;DHT22;9199;48.832;9.182;2023-05-15T06:15:57;14.60;99.90
18147;DHT22;9199;48.832;9.182;2023-05-15T06:18:24;14.70;99.90
18147;DHT22;9199;48.832;9.182;2023-05-15T06:20:51;15.00;99.90
18147;DHT22;9199;48.832;9.182;2023-05-15T06:23:17;15.50;99.90
18147;DHT22;9199;48.832;9.182;2023-05-15T06:25:45;15.90;99.90
18147;DHT22;9199;48.832;9.182;2023-05-15T06:28:11;16.20;99.90
18147;DHT22;9199;48.832;9.182;2023-05-15T06:30:39;16.40;99.90
18147;DHT22;9199;48.832;9.182;2023-05-15T06:33:06;16.50;99.90
18147;DHT22;9199;48.832;9.182;2023-05-15T06:35:33;16.50;99.90
18147;DHT22;9199;48.832;9.182;2023-05-15T06:38:00;16.60;99.90
18147;DHT22;9199;48.832;9.182;2023-05-15T06:40:26;16.90;99.90
18147;DHT22;9199;48.832;9.182;2023-05-15T06:42:53;17.10;99.90
18147;DHT22;9199;48.832;9.182;2023-05-15T06:45:20;17.00;99.90
18147;DHT22;9199;48.832;9.182;2023-05-15T06:47:48;17.10;99.90
18147;DHT22;9199;48.832;9.182;2023-05-15T06:50:15;17.10;99.90
18147;DHT22;9199;48.832;9.182;2023-05-15T06:52:41;17.40;99.90
18147;DHT22;9199;48.832;9.182;2023-05-15T06:55:08;17.80;99.90
18147;DHT22;9199;48.832;9.182;2023-05-15T06:57:35;18.00;99.90
18147;DHT22;9199;48.832;9.182;2023-05-15T07:00:02;17.80;99.90
18147;DHT22;9199;48.832;9.182;2023-05-15T07:02:29;17.70;99.90
18147;DHT22;9199;48.832;9.182;2023-05-15T07:04:57;17.80;99.90
18147;DHT22;9199;48.832;9.182;2023-05-15T07:07:24;18.10;99.90
18147;DHT22;9199;48.832;9.182;2023-05-15T07:09:51;18.40;99.90
18147;DHT22;9199;48.832;9.182;2023-05-15T07:12:17;18.20;99.90
18147;DHT22;9199;48.832;9.182;2023-05-15T07:14:44;18.30;99.90
18147;DHT22;9199;48.832;9.182;2023-05-15T07:17:11;18.40;99.90
18147;DHT22;9199;48.832;9.182;2023-05-15T07:19:38;18.70;99.90
18147;DHT22;9199;48.832;9.182;2023-05-15T07:22:06;18.90;99.90
18147;DHT22;9199;48.832;9.182;2023-05-15T07:24:32;19.10;99.90
18147;DHT22;9199;48.832;9.182;2023-05-15T07:26:59;19.40;99.90
18147;DHT22;9199;48.832;9.182;2023-05-15T07:29:26;19.80;99.90
18147;DHT22;9199;48.832;9.182;2023-05-15T07:31:52;20.10;99.90
18147;DHT22;9199;48.832;9.182;2023-05-15T07:34:19;20.10;99.90
18147;DHT22;9199;48.832;9.182;2023-05-15T07:36:46;20.20;99.90
18147;DHT22;9199;48.832;9.182;2023-05-15T07:39:14;20.30;99.90
18147;DHT22;9199;48.832;9.182;2023-05-15T07:41:40;20.30;99.90
18147;DHT22;9199;48.832;9.182;2023-05-15T07:44:07;20.50;99.90
18147;DHT22;9199;48.832;9.182;2023-05-15T07:46:34;20.30;99.90
18147;DHT22;9199;48.832;9.182;2023-05-15T07:49:00;20.20;99.90
18147;DHT22;9199;48.832;9.182;2023-05-15T07:51:27;20.20;99.90
18147;DHT22;9199;48.832;9.182;2023-05-15T07:53:54;20.50;99.90
18147;DHT22;9199;48.832;9.182;2023-05-15T07:56:22;20.90;99.90
18147;DHT22;9199;48.832;9.182;2023-05-15T07:58:48;21.10;99.90
18147;DHT22;9199;48.832;9.182;2023-05-15T08:01:15;21.10;99.80
18147;DHT22;9199;48.832;9.182;2023-05-15T08:03:42;21.20;99.70
18147;DHT22;9199;48.832;9.182;2023-05-15T08:06:09;21.00;99.10
18147;DHT22;9199;48.832;9.182;2023-05-15T08:08:35;20.80;99.60
18147;DHT22;9199;48.832;9.182;2023-05-15T08:11:02;20.90;99.80
18147;DHT22;9199;48.832;9.182;2023-05-15T08:13:30;21.10;99.00
18147;DHT22;9199;48.832;9.182;2023-05-15T08:15:57;21.10;97.80
18147;DHT22;9199;48.832;9.182;2023-05-15T08:18:23;21.00;98.80
18147;DHT22;9199;48.832;9.182;2023-05-15T08:20:50;21.30;98.20
18147;DHT22;9199;48.832;9.182;2023-05-15T08:23:17;21.30;98.70
18147;DHT22;9199;48.832;9.182;2023-05-15T08:25:44;21.50;98.00
18147;DHT22;9199;48.832;9.182;2023-05-15T08:28:11;21.40;98.00
18147;DHT22;9199;48.832;9.182;2023-05-15T08:30:39;21.20;99.50
18147;DHT22;9199;48.832;9.182;2023-05-15T08:33:06;21.50;98.80
18147;DHT22;9199;48.832;9.182;2023-05-15T08:35:32;21.80;97.40
18147;DHT22;9199;48.832;9.182;2023-05-15T08:37:59;22.10;98.50
18147;DHT22;9199;48.832;9.182;2023-05-15T08:40:26;22.40;96.30
18147;DHT22;9199;48.832;9.182;2023-05-15T08:42:54;22.80;95.40
18147;DHT22;9199;48.832;9.182;2023-05-15T08:45:23;23.00;94.90
18147;DHT22;9199;48.832;9.182;2023-05-15T08:47:51;23.10;94.00
18147;DHT22;9199;48.832;9.182;2023-05-15T08:50:19;23.10;94.40
18147;DHT22;9199;48.832;9.182;2023-05-15T08:52:47;23.40;94.80
18147;DHT22;9199;48.832;9.182;2023-05-15T08:55:14;23.60;93.60
18147;DHT22;9199;48.832;9.182;2023-05-15T08:57:41;23.60;92.70
18147;DHT22;9199;48.832;9.182;2023-05-15T09:00:10;23.40;92.30
18147;DHT22;9199;48.832;9.182;2023-05-15T09:02:40;22.80;93.50
18147;DHT22;9199;48.832;9.182;2023-05-15T09:05:09;22.30;94.40
18147;DHT22;9199;48.832;9.182;2023-05-15T09:07:38;22.70;93.40
18147;DHT22;9199;48.832;9.182;2023-05-15T09:10:06;22.70;93.00
18147;DHT22;9199;48.832;9.182;2023-05-15T09:12:33;22.10;93.50
18147;DHT22;9199;48.832;9.182;2023-05-15T09:15:09;21.40;94.10
18147;DHT22;9199;48.832;9.182;2023-05-15T09:17:36;20.80;95.40
18147;DHT22;9199;48.832;9.182;2023-05-15T09:20:04;20.50;95.90
18147;DHT22;9199;48.832;9.182;2023-05-15T09:22:34;20.30;96.20
18147;DHT22;9199;48.832;9.182;2023-05-15T09:25:01;20.30;95.90
18147;DHT22;9199;48.832;9.182;2023-05-15T09:27:28;21.10;96.20
18147;DHT22;9199;48.832;9.182;2023-05-15T09:29:55;22.00;94.20
18147;DHT22;9199;48.832;9.182;2023-05-15T09:32:33;22.90;93.90
18147;DHT22;9199;48.832;9.182;2023-05-15T09:35:01;23.60;92.40
18147;DHT22;9199;48.832;9.182;2023-05-15T09:37:30;24.10;90.80
18147;DHT22;9199;48.832;9.182;2023-05-15T09:40:07;24.50;91.50
18147;DHT22;9199;48.832;9.182;2023-05-15T09:42:35;25.00;90.90
18147;DHT22;9199;48.832;9.182;2023-05-15T09:45:03;25.20;87.50
18147;DHT22;9199;48.832;9.182;2023-05-15T09:47:30;25.20;86.80
18147;DHT22;9199;48.832;9.182;2023-05-15T09:49:57;25.20;86.30
18147;DHT22;9199;48.832;9.182;2023-05-15T09:52:24;25.30;86.40
18147;DHT22;9199;48.832;9.182;2023-05-15T09:54:51;25.10;85.30
18147;DHT22;9199;48.832;9.182;2023-05-15T09:57:20;25.30;85.40
18147;DHT22;9199;48.832;9.182;2023-05-15T09:59:48;25.50;84.90
18147;DHT22;9199;48.832;9.182;2023-05-15T10:02:21;25.60;84.00
18147;DHT22;9199;48.832;9.182;2023-05-15T10:04:53;25.70;81.90
18147;DHT22;9199;48.832;9.182;2023-05-15T10:07:27;25.90;83.00
18147;DHT22;9199;48.832;9.182;2023-05-15T10:09:54;26.10;81.30
18147;DHT22;9199;48.832;9.182;2023-05-15T10:12:22;26.30;82.60
18147;DHT22;9199;48.832;9.182;2023-05-15T10:14:51;26.60;80.40
18147;DHT22;9199;48.832;9.182;2023-05-15T10:17:19;26.90;79.10
18147;DHT22;9199;48.832;9.182;2023-05-15T10:19:47;26.40;79.40
18147;DHT22;9199;48.832;9.182;2023-05-15T10:22:18;26.30;75.60
18147;DHT22;9199;48.832;9.182;2023-05-15T10:24:51;26.10;74.20
18147;DHT22;9199;48.832;9.182;2023-05-15T10:27:22;26.20;75.80
18147;DHT22;9199;48.832;9.182;2023-05-15T10:29:49;26.10;76.50
18147;DHT22;9199;48.832;9.182;2023-05-15T10:32:16;26.70;74.50
18147;DHT22;9199;48.832;9.182;2023-05-15T10:34:44;27.00;72.30
18147;DHT22;9199;48.832;9.182;2023-05-15T10:37:11;27.30;70.80
18147;DHT22;9199;48.832;9.182;2023-05-15T10:39:39;27.30;65.60
18147;DHT22;9199;48.832;9.182;2023-05-15T10:42:07;27.70;65.70
18147;DHT22;9199;48.832;9.182;2023-05-15T10:44:35;28.00;63.10
18147;DHT22;9199;48.832;9.182;2023-05-15T10:47:02;28.20;60.00
18147;DHT22;9199;48.832;9.182;2023-05-15T10:49:29;28.00;62.20
18147;DHT22;9199;48.832;9.182;2023-05-15T10:51:59;27.60;63.10
18147;DHT22;9199;48.832;9.182;2023-05-15T10:54:26;27.50;66.00
18147;DHT22;9199;48.832;9.182;2023-05-15T10:56:55;27.70;64.40
18147;DHT22;9199;48.832;9.182;2023-05-15T10:59:30;28.00;61.60
18147;DHT22;9199;48.832;9.182;2023-05-15T11:02:18;27.30;62.20
18147;DHT22;9199;48.832;9.182;2023-05-15T11:04:45;27.10;66.00
18147;DHT22;9199;48.832;9.182;2023-05-15T11:07:13;27.60;64.90
18147;DHT22;9199;48.832;9.182;2023-05-15T11:09:40;26.70;62.60
18147;DHT22;9199;48.832;9.182;2023-05-15T11:12:08;26.10;66.50
18147;DHT22;9199;48.832;9.182;2023-05-15T11:14:37;27.00;64.00
18147;DHT22;9199;48.832;9.182;2023-05-15T11:17:07;27.60;65.50
18147;DHT22;9199;48.832;9.182;2023-05-15T11:19:53;28.20;63.20
18147;DHT22;9199;48.832;9.182;2023-05-15T11:22:29;28.80;60.00
18147;DHT22;9199;48.832;9.182;2023-05-15T11:25:01;29.10;59.30
18147;DHT22;9199;48.832;9.182;2023-05-15T11:27:30;29.50;57.60
18147;DHT22;9199;48.832;9.182;2023-05-15T11:32:49;29.20;55.70
18147;DHT22;9199;48.832;9.182;2023-05-15T11:35:21;29.30;55.40
18147;DHT22;9199;48.832;9.182;2023-05-15T11:37:49;29.40;55.30
18147;DHT22;9199;48.832;9.182;2023-05-15T11:40:19;29.40;56.50
18147;DHT22;9199;48.832;9.182;2023-05-15T11:43:02;29.50;55.60
18147;DHT22;9199;48.832;9.182;2023-05-15T11:45:30;30.20;55.10
18147;DHT22;9199;48.832;9.182;2023-05-15T11:48:01;30.20;55.60
18147;DHT22;9199;48.832;9.182;2023-05-15T11:50:30;30.40;51.50
18147;DHT22;9199;48.832;9.182;2023-05-15T11:52:57;29.90;51.00
18147;DHT22;9199;48.832;9.182;2023-05-15T11:55:27;30.10;50.20
18147;DHT22;9199;48.832;9.182;2023-05-15T11:57:54;30.60;51.00
18147;DHT22;9199;48.832;9.182;2023-05-15T12:00:21;29.50;52.50
18147;DHT22;9199;48.832;9.182;2023-05-15T12:02:48;28.00;56.00
18147;DHT22;9199;48.832;9.182;2023-05-15T12:05:16;28.30;56.30
18147;DHT22;9199;48.832;9.182;2023-05-15T12:07:43;28.50;53.90
18147;DHT22;9199;48.832;9.182;2023-05-15T12:10:11;28.70;51.40
18147;DHT22;9199;48.832;9.182;2023-05-15T12:12:38;29.20;51.50
18147;DHT22;9199;48.832;9.182;2023-05-15T12:15:08;29.00;52.70
18147;DHT22;9199;48.832;9.182;2023-05-15T12:17:36;29.30;51.10
18147;DHT22;9199;48.832;9.182;2023-05-15T12:20:06;28.00;51.50
18147;DHT22;9199;48.832;9.182;2023-05-15T12:22:38;26.50;54.00
18147;DHT22;9199;48.832;9.182;2023-05-15T12:25:07;25.10;56.40
18147;DHT22;9199;48.832;9.182;2023-05-15T12:27:35;24.20;58.40
18147;DHT22;9199;48.832;9.182;2023-05-15T12:30:03;24.30;59.60
18147;DHT22;9199;48.832;9.182;2023-05-15T12:32:31;25.60;58.50
18147;DHT22;9199;48.832;9.182;2023-05-15T12:34:59;26.20;54.90
18147;DHT22;9199;48.832;9.182;2023-05-15T12:37:26;25.80;55.60
18147;DHT22;9199;48.832;9.182;2023-05-15T12:39:56;24.80;57.30
18147;DHT22;9199;48.832;9.182;2023-05-15T12:42:25;23.90;59.30
18147;DHT22;9199;48.832;9.182;2023-05-15T12:44:53;23.60;61.20
18147;DHT22;9199;48.832;9.182;2023-05-15T12:47:23;24.00;63.20
18147;DHT22;9199;48.832;9.182;2023-05-15T12:49:54;24.60;60.80
18147;DHT22;9199;48.832;9.182;2023-05-15T12:52:21;24.10;59.50
18147;DHT22;9199;48.832;9.182;2023-05-15T12:54:49;23.60;59.50
18147;DHT22;9199;48.832;9.182;2023-05-15T12:57:17;22.80;60.50
18147;DHT22;9199;48.832;9.182;2023-05-15T12:59:43;21.90;63.60
18147;DHT22;9199;48.832;9.182;2023-05-15T13:02:11;21.50;64.40
18147;DHT22;9199;48.832;9.182;2023-05-15T13:04:38;21.30;66.70
18147;DHT22;9199;48.832;9.182;2023-05-15T13:07:05;21.30;66.60
18147;DHT22;9199;48.832;9.182;2023-05-15T13:09:32;21.30;67.90
18147;DHT22;9199;48.832;9.182;2023-05-15T13:12:01;21.40;67.40
18147;DHT22;9199;48.832;9.182;2023-05-15T13:14:32;21.40;69.10
18147;DHT22;9199;48.832;9.182;2023-05-15T13:17:00;21.20;70.90
18147;DHT22;9199;48.832;9.182;2023-05-15T13:19:27;21.00;72.70
18147;DHT22;9199;48.832;9.182;2023-05-15T13:21:54;21.00;71.50
18147;DHT22;9199;48.832;9.182;2023-05-15T13:24:21;20.90;71.30
18147;DHT22;9199;48.832;9.182;2023-05-15T13:26:47;20.90;70.60
18147;DHT22;9199;48.832;9.182;2023-05-15T13:29:14;21.80;69.40
18147;DHT22;9199;48.832;9.182;2023-05-15T13:31:42;23.00;69.00
18147;DHT22;9199;48.832;9.182;2023-05-15T13:34:09;23.00;66.60
18147;DHT22;9199;48.832;9.182;2023-05-15T13:36:36;22.70;67.80
18147;DHT22;9199;48.832;9.182;2023-05-15T13:39:03;22.00;68.10
18147;DHT22;9199;48.832;9.182;2023-05-15T13:41:30;21.40;67.40
18147;DHT22;9199;48.832;9.182;2023-05-15T13:43:59;20.90;69.40
18147;DHT22;9199;48.832;9.182;2023-05-15T13:46:25;20.80;70.10
18147;DHT22;9199;48.832;9.182;2023-05-15T13:48:53;20.80;70.10
18147;DHT22;9199;48.832;9.182;2023-05-15T13:51:20;20.80;69.60
18147;DHT22;9199;48.832;9.182;2023-05-15T13:53:47;21.00;70.80
18147;DHT22;9199;48.832;9.182;2023-05-15T13:56:14;21.40;69.40
18147;DHT22;9199;48.832;9.182;2023-05-15T13:58:40;21.70;68.70
18147;DHT22;9199;48.832;9.182;2023-05-15T14:01:07;21.90;67.30
18147;DHT22;9199;48.832;9.182;2023-05-15T14:03:33;22.00;67.70
18147;DHT22;9199;48.832;9.182;2023-05-15T14:06:01;22.10;67.90
18147;DHT22;9199;48.832;9.182;2023-05-15T14:08:28;22.10;68.40
18147;DHT22;9199;48.832;9.182;2023-05-15T14:10:55;21.80;72.40
18147;DHT22;9199;48.832;9.182;2023-05-15T14:13:21;21.70;72.80
18147;DHT22;9199;48.832;9.182;2023-05-15T14:15:48;21.40;73.50
18147;DHT22;9199;48.832;9.182;2023-05-15T14:18:15;21.20;73.10
18147;DHT22;9199;48.832;9.182;2023-05-15T14:20:42;21.00;74.60
18147;DHT22;9199;48.832;9.182;2023-05-15T14:23:10;20.80;75.50
18147;DHT22;9199;48.832;9.182;2023-05-15T14:25:36;20.70;76.90
18147;DHT22;9199;48.832;9.182;2023-05-15T14:28:03;20.60;76.50
18147;DHT22;9199;48.832;9.182;2023-05-15T14:30:29;20.60;78.10
18147;DHT22;9199;48.832;9.182;2023-05-15T14:32:57;20.80;78.30
18147;DHT22;9199;48.832;9.182;2023-05-15T14:35:24;21.30;75.90
18147;DHT22;9199;48.832;9.182;2023-05-15T14:37:50;22.50;73.00
18147;DHT22;9199;48.832;9.182;2023-05-15T14:40:18;24.10;69.70
18147;DHT22;9199;48.832;9.182;2023-05-15T14:42:45;25.10;66.10
18147;DHT22;9199;48.832;9.182;2023-05-15T14:45:12;24.80;66.50
18147;DHT22;9199;48.832;9.182;2023-05-15T14:47:38;24.40;65.90
18147;DHT22;9199;48.832;9.182;2023-05-15T14:50:06;24.60;66.10
18147;DHT22;9199;48.832;9.182;2023-05-15T14:52:33;25.30;63.60
18147;DHT22;9199;48.832;9.182;2023-05-15T14:55:00;25.90;62.70
18147;DHT22;9199;48.832;9.182;2023-05-15T14:57:29;25.70;61.00
18147;DHT22;9199;48.832;9.182;2023-05-15T14:59:55;24.50;63.10
18147;DHT22;9199;48.832;9.182;2023-05-15T15:02:22;23.20;65.90
18147;DHT22;9199;48.832;9.182;2023-05-15T15:04:49;22.50;67.80
18147;DHT22;9199;48.832;9.182;2023-05-15T15:07:15;21.70;69.10
18147;DHT22;9199;48.832;9.182;2023-05-15T15:09:42;21.10;69.30
18147;DHT22;9199;48.832;9.182;2023-05-15T15:12:09;20.60;71.40
18147;DHT22;9199;48.832;9.182;2023-05-15T15:14:37;20.00;73.20
18147;DHT22;9199;48.832;9.182;2023-05-15T15:17:04;19.70;74.20
18147;DHT22;9199;48.832;9.182;2023-05-15T15:19:31;19.30;75.50
18147;DHT22;9199;48.832;9.182;2023-05-15T15:21:57;18.90;74.40
18147;DHT22;9199;48.832;9.182;2023-05-15T15:24:24;18.60;81.90
18147;DHT22;9199;48.832;9.182;2023-05-15T15:26:51;18.20;85.10
18147;DHT22;9199;48.832;9.182;2023-05-15T15:29:17;17.90;89.50
18147;DHT22;9199;48.832;9.182;2023-05-15T15:31:45;17.70;91.50
18147;DHT22;9199;48.832;9.182;2023-05-15T15:34:12;17.50;92.90
18147;DHT22;9199;48.832;9.182;2023-05-15T15:36:39;17.40;94.20
18147;DHT22;9199;48.832;9.182;2023-05-15T15:39:06;17.40;94.80
18147;DHT22;9199;48.832;9.182;2023-05-15T15:41:32;17.30;95.60
18147;DHT22;9199;48.832;9.182;2023-05-15T15:44:02;17.30;96.20
18147;DHT22;9199;48.832;9.182;2023-05-15T15:46:29;17.30;97.90
18147;DHT22;9199;48.832;9.182;2023-05-15T15:48:57;17.20;98.80
18147;DHT22;9199;48.832;9.182;2023-05-15T15:51:24;17.00;99.90